Terminal Aerodrome Forecast
Issued by NWS

Home | Current Version | Previous Version | Graphics & Text | Print | Product List | Glossary On
Versions: 1 2 3 4 5 6 7 8 9 10 11 12 13 14 15 16 17 18 19 20 21 22 23
831
FTUS43 KFGF 031135
TAFBJI
TAF
KBJI 031135Z 0312/0412 21004KT P6SM OVC015
     FM032000 16008KT P6SM BKN015
     FM040300 16010KT P6SM OVC008
     FM040800 16009KT P6SM OVC003=

USA.gov is the U.S. government's official web portal to all federal, state and local government web resources and services.